sensor_id;sensor_type;location;lat;lon;timestamp;temperature;humidity
12967;DHT22;6548;49.996;8.238;2024-02-26T00:01:26;7.90;99.90
12967;DHT22;6548;49.996;8.238;2024-02-26T00:03:52;7.90;99.90
12967;DHT22;6548;49.996;8.238;2024-02-26T00:06:18;7.90;99.90
12967;DHT22;6548;49.996;8.238;2024-02-26T00:08:44;8.00;99.90
12967;DHT22;6548;49.996;8.238;2024-02-26T00:11:09;8.00;99.90
12967;DHT22;6548;49.996;8.238;2024-02-26T00:13:35;8.00;99.90
12967;DHT22;6548;49.996;8.238;2024-02-26T00:16:02;8.00;99.90
12967;DHT22;6548;49.996;8.238;2024-02-26T00:18:27;8.00;99.90
12967;DHT22;6548;49.996;8.238;2024-02-26T00:20:53;8.00;99.90
12967;DHT22;6548;49.996;8.238;2024-02-26T00:23:19;8.00;99.90
12967;DHT22;6548;49.996;8.238;2024-02-26T00:25:44;8.00;99.90
12967;DHT22;6548;49.996;8.238;2024-02-26T00:28:10;8.10;99.90
12967;DHT22;6548;49.996;8.238;2024-02-26T00:30:36;8.10;99.90
12967;DHT22;6548;49.996;8.238;2024-02-26T00:33:01;8.10;99.90
12967;DHT22;6548;49.996;8.238;2024-02-26T00:35:27;8.10;99.90
12967;DHT22;6548;49.996;8.238;2024-02-26T00:37:53;8.10;99.90
12967;DHT22;6548;49.996;8.238;2024-02-26T00:40:18;8.10;99.90
12967;DHT22;6548;49.996;8.238;2024-02-26T00:42:44;8.10;99.90
12967;DHT22;6548;49.996;8.238;2024-02-26T00:45:12;8.00;99.90
12967;DHT22;6548;49.996;8.238;2024-02-26T00:47:38;8.10;99.90
12967;DHT22;6548;49.996;8.238;2024-02-26T00:50:06;8.10;99.90
12967;DHT22;6548;49.996;8.238;2024-02-26T00:52:32;8.10;99.90
12967;DHT22;6548;49.996;8.238;2024-02-26T00:54:58;8.10;99.90
12967;DHT22;6548;49.996;8.238;2024-02-26T00:57:23;8.10;99.90
12967;DHT22;6548;49.996;8.238;2024-02-26T00:59:49;8.10;99.90
12967;DHT22;6548;49.996;8.238;2024-02-26T01:02:16;8.10;99.90
12967;DHT22;6548;49.996;8.238;2024-02-26T01:04:41;8.10;99.90
12967;DHT22;6548;49.996;8.238;2024-02-26T01:07:07;8.10;99.90
12967;DHT22;6548;49.996;8.238;2024-02-26T01:09:32;8.10;99.90
12967;DHT22;6548;49.996;8.238;2024-02-26T01:11:58;8.10;99.90
12967;DHT22;6548;49.996;8.238;2024-02-26T01:14:24;8.10;99.90
12967;DHT22;6548;49.996;8.238;2024-02-26T01:16:49;8.10;99.90
12967;DHT22;6548;49.996;8.238;2024-02-26T01:19:15;8.10;99.90
12967;DHT22;6548;49.996;8.238;2024-02-26T01:21:40;8.10;99.90
12967;DHT22;6548;49.996;8.238;2024-02-26T01:24:06;8.10;99.90
12967;DHT22;6548;49.996;8.238;2024-02-26T01:26:32;8.10;99.90
12967;DHT22;6548;49.996;8.238;2024-02-26T01:28:58;8.10;99.90
12967;DHT22;6548;49.996;8.238;2024-02-26T01:31:23;8.10;99.90
12967;DHT22;6548;49.996;8.238;2024-02-26T01:33:49;8.10;99.90
12967;DHT22;6548;49.996;8.238;2024-02-26T01:36:14;8.10;99.90
12967;DHT22;6548;49.996;8.238;2024-02-26T01:38:40;8.10;99.90
12967;DHT22;6548;49.996;8.238;2024-02-26T01:41:05;8.10;99.90
12967;DHT22;6548;49.996;8.238;2024-02-26T01:43:31;8.10;99.90
12967;DHT22;6548;49.996;8.238;2024-02-26T01:45:57;8.10;99.90
12967;DHT22;6548;49.996;8.238;2024-02-26T01:48:23;8.10;99.90
12967;DHT22;6548;49.996;8.238;2024-02-26T01:50:49;8.10;99.90
12967;DHT22;6548;49.996;8.238;2024-02-26T01:53:16;8.10;99.90
12967;DHT22;6548;49.996;8.238;2024-02-26T01:55:42;8.00;99.90
12967;DHT22;6548;49.996;8.238;2024-02-26T01:58:08;8.10;99.90
12967;DHT22;6548;49.996;8.238;2024-02-26T02:00:34;8.00;99.90
12967;DHT22;6548;49.996;8.238;2024-02-26T02:03:01;8.00;99.90
12967;DHT22;6548;49.996;8.238;2024-02-26T02:05:28;8.00;99.90
12967;DHT22;6548;49.996;8.238;2024-02-26T02:07:54;8.00;99.90
12967;DHT22;6548;49.996;8.238;2024-02-26T02:10:20;8.00;99.90
12967;DHT22;6548;49.996;8.238;2024-02-26T02:12:48;8.00;99.90
12967;DHT22;6548;49.996;8.238;2024-02-26T02:15:14;8.00;99.90
12967;DHT22;6548;49.996;8.238;2024-02-26T02:17:40;8.00;99.90
12967;DHT22;6548;49.996;8.238;2024-02-26T02:20:10;8.00;99.90
12967;DHT22;6548;49.996;8.238;2024-02-26T02:22:40;8.00;99.90
12967;DHT22;6548;49.996;8.238;2024-02-26T02:25:06;8.00;99.90
12967;DHT22;6548;49.996;8.238;2024-02-26T02:27:31;8.00;99.90
12967;DHT22;6548;49.996;8.238;2024-02-26T02:29:57;8.10;99.90
12967;DHT22;6548;49.996;8.238;2024-02-26T02:32:24;8.00;99.90
12967;DHT22;6548;49.996;8.238;2024-02-26T02:34:50;8.00;99.90
12967;DHT22;6548;49.996;8.238;2024-02-26T02:37:16;8.00;99.90
12967;DHT22;6548;49.996;8.238;2024-02-26T02:39:41;7.90;99.90
12967;DHT22;6548;49.996;8.238;2024-02-26T02:42:08;7.90;99.90
12967;DHT22;6548;49.996;8.238;2024-02-26T02:44:34;8.00;99.90
12967;DHT22;6548;49.996;8.238;2024-02-26T02:46:59;7.90;99.90
12967;DHT22;6548;49.996;8.238;2024-02-26T02:49:25;7.90;99.90
12967;DHT22;6548;49.996;8.238;2024-02-26T02:51:51;7.90;99.90
12967;DHT22;6548;49.996;8.238;2024-02-26T02:54:18;7.90;99.90
12967;DHT22;6548;49.996;8.238;2024-02-26T02:56:44;7.90;99.90
12967;DHT22;6548;49.996;8.238;2024-02-26T02:59:09;7.90;99.90
12967;DHT22;6548;49.996;8.238;2024-02-26T03:01:35;7.90;99.90
12967;DHT22;6548;49.996;8.238;2024-02-26T03:04:01;7.90;99.90
12967;DHT22;6548;49.996;8.238;2024-02-26T03:06:26;7.90;99.90
12967;DHT22;6548;49.996;8.238;2024-02-26T03:08:54;7.80;99.90
12967;DHT22;6548;49.996;8.238;2024-02-26T03:11:20;7.70;99.90
12967;DHT22;6548;49.996;8.238;2024-02-26T03:13:45;7.80;99.90
12967;DHT22;6548;49.996;8.238;2024-02-26T03:16:11;7.80;99.90
12967;DHT22;6548;49.996;8.238;2024-02-26T03:18:39;7.70;99.90
12967;DHT22;6548;49.996;8.238;2024-02-26T03:21:05;7.70;99.90
12967;DHT22;6548;49.996;8.238;2024-02-26T03:23:31;7.70;99.90
12967;DHT22;6548;49.996;8.238;2024-02-26T03:25:58;7.60;99.90
12967;DHT22;6548;49.996;8.238;2024-02-26T03:28:23;7.60;99.90
12967;DHT22;6548;49.996;8.238;2024-02-26T03:30:49;7.50;99.90
12967;DHT22;6548;49.996;8.238;2024-02-26T03:33:14;7.40;99.90
12967;DHT22;6548;49.996;8.238;2024-02-26T03:35:40;7.40;99.90
12967;DHT22;6548;49.996;8.238;2024-02-26T03:38:05;7.40;99.90
12967;DHT22;6548;49.996;8.238;2024-02-26T03:40:31;7.40;99.90
12967;DHT22;6548;49.996;8.238;2024-02-26T03:42:58;7.40;99.90
12967;DHT22;6548;49.996;8.238;2024-02-26T03:45:23;7.40;99.90
12967;DHT22;6548;49.996;8.238;2024-02-26T03:47:51;7.40;99.90
12967;DHT22;6548;49.996;8.238;2024-02-26T03:50:16;7.40;99.90
12967;DHT22;6548;49.996;8.238;2024-02-26T03:52:42;7.40;99.90
12967;DHT22;6548;49.996;8.238;2024-02-26T03:55:08;7.30;99.90
12967;DHT22;6548;49.996;8.238;2024-02-26T03:57:33;7.30;99.90
12967;DHT22;6548;49.996;8.238;2024-02-26T03:59:59;7.30;99.90
12967;DHT22;6548;49.996;8.238;2024-02-26T04:02:24;7.30;99.90
12967;DHT22;6548;49.996;8.238;2024-02-26T04:04:50;7.20;99.90
12967;DHT22;6548;49.996;8.238;2024-02-26T04:07:16;7.10;99.90
12967;DHT22;6548;49.996;8.238;2024-02-26T04:09:42;7.10;99.90
12967;DHT22;6548;49.996;8.238;2024-02-26T04:12:08;7.00;99.90
12967;DHT22;6548;49.996;8.238;2024-02-26T04:14:35;7.00;99.90
12967;DHT22;6548;49.996;8.238;2024-02-26T04:17:01;7.00;99.90
12967;DHT22;6548;49.996;8.238;2024-02-26T04:19:27;7.00;99.90
12967;DHT22;6548;49.996;8.238;2024-02-26T04:21:52;7.00;99.90
12967;DHT22;6548;49.996;8.238;2024-02-26T04:24:18;6.90;99.90
12967;DHT22;6548;49.996;8.238;2024-02-26T04:26:43;6.90;99.90
12967;DHT22;6548;49.996;8.238;2024-02-26T04:29:09;7.00;99.90
12967;DHT22;6548;49.996;8.238;2024-02-26T04:31:34;7.00;99.90
12967;DHT22;6548;49.996;8.238;2024-02-26T04:34:00;6.90;99.90
12967;DHT22;6548;49.996;8.238;2024-02-26T04:36:25;6.90;99.90
12967;DHT22;6548;49.996;8.238;2024-02-26T04:38:51;6.90;99.90
12967;DHT22;6548;49.996;8.238;2024-02-26T04:41:17;6.90;99.90
12967;DHT22;6548;49.996;8.238;2024-02-26T04:43:42;6.90;99.90
12967;DHT22;6548;49.996;8.238;2024-02-26T04:46:08;6.90;99.90
12967;DHT22;6548;49.996;8.238;2024-02-26T04:48:35;6.90;99.90
12967;DHT22;6548;49.996;8.238;2024-02-26T04:51:01;6.90;99.90
12967;DHT22;6548;49.996;8.238;2024-02-26T04:53:27;6.90;99.90
12967;DHT22;6548;49.996;8.238;2024-02-26T04:55:53;6.90;99.90
12967;DHT22;6548;49.996;8.238;2024-02-26T04:58:19;6.90;99.90
12967;DHT22;6548;49.996;8.238;2024-02-26T05:00:44;6.80;99.90
12967;DHT22;6548;49.996;8.238;2024-02-26T05:03:10;6.90;99.90
12967;DHT22;6548;49.996;8.238;2024-02-26T05:05:40;6.80;99.90
12967;DHT22;6548;49.996;8.238;2024-02-26T05:08:06;6.80;99.90
12967;DHT22;6548;49.996;8.238;2024-02-26T05:10:33;6.80;99.90
12967;DHT22;6548;49.996;8.238;2024-02-26T05:12:58;6.80;99.90
12967;DHT22;6548;49.996;8.238;2024-02-26T05:15:24;6.80;99.90
12967;DHT22;6548;49.996;8.238;2024-02-26T05:17:49;6.80;99.90
12967;DHT22;6548;49.996;8.238;2024-02-26T05:20:15;6.80;99.90
12967;DHT22;6548;49.996;8.238;2024-02-26T05:22:40;6.80;99.90
12967;DHT22;6548;49.996;8.238;2024-02-26T05:25:07;6.80;99.90
12967;DHT22;6548;49.996;8.238;2024-02-26T05:27:33;6.80;99.90
12967;DHT22;6548;49.996;8.238;2024-02-26T05:29:58;6.80;99.90
12967;DHT22;6548;49.996;8.238;2024-02-26T05:32:24;6.80;99.90
12967;DHT22;6548;49.996;8.238;2024-02-26T05:34:49;6.80;99.90
12967;DHT22;6548;49.996;8.238;2024-02-26T05:37:15;6.80;99.90
12967;DHT22;6548;49.996;8.238;2024-02-26T05:39:40;6.80;99.90
12967;DHT22;6548;49.996;8.238;2024-02-26T05:42:06;6.80;99.90
12967;DHT22;6548;49.996;8.238;2024-02-26T05:44:31;6.80;99.90
12967;DHT22;6548;49.996;8.238;2024-02-26T05:46:57;6.80;99.90
12967;DHT22;6548;49.996;8.238;2024-02-26T05:49:22;6.90;99.90
12967;DHT22;6548;49.996;8.238;2024-02-26T05:51:48;6.80;99.90
12967;DHT22;6548;49.996;8.238;2024-02-26T05:54:13;6.80;99.90
12967;DHT22;6548;49.996;8.238;2024-02-26T05:56:39;6.80;99.90
12967;DHT22;6548;49.996;8.238;2024-02-26T05:59:05;6.90;99.90
12967;DHT22;6548;49.996;8.238;2024-02-26T06:01:31;6.90;99.90
12967;DHT22;6548;49.996;8.238;2024-02-26T06:03:56;6.80;99.90
12967;DHT22;6548;49.996;8.238;2024-02-26T06:06:22;6.80;99.90
12967;DHT22;6548;49.996;8.238;2024-02-26T06:08:48;6.80;99.90
12967;DHT22;6548;49.996;8.238;2024-02-26T06:11:14;6.80;99.90
12967;DHT22;6548;49.996;8.238;2024-02-26T06:13:40;6.80;99.90
12967;DHT22;6548;49.996;8.238;2024-02-26T06:16:05;6.80;99.90
12967;DHT22;6548;49.996;8.238;2024-02-26T06:18:33;6.70;99.90
12967;DHT22;6548;49.996;8.238;2024-02-26T06:20:58;6.80;99.90
12967;DHT22;6548;49.996;8.238;2024-02-26T06:23:24;6.70;99.90
12967;DHT22;6548;49.996;8.238;2024-02-26T06:25:51;6.70;99.90
12967;DHT22;6548;49.996;8.238;2024-02-26T06:28:16;6.70;99.90
12967;DHT22;6548;49.996;8.238;2024-02-26T06:30:42;6.70;99.90
12967;DHT22;6548;49.996;8.238;2024-02-26T06:33:07;6.70;99.90
12967;DHT22;6548;49.996;8.238;2024-02-26T06:35:33;6.70;99.90
12967;DHT22;6548;49.996;8.238;2024-02-26T06:37:58;6.70;99.90
12967;DHT22;6548;49.996;8.238;2024-02-26T06:40:24;6.70;99.90
12967;DHT22;6548;49.996;8.238;2024-02-26T06:42:50;6.70;99.90
12967;DHT22;6548;49.996;8.238;2024-02-26T06:45:16;6.70;99.90
12967;DHT22;6548;49.996;8.238;2024-02-26T06:47:42;6.70;99.90
12967;DHT22;6548;49.996;8.238;2024-02-26T06:50:08;6.70;99.90
12967;DHT22;6548;49.996;8.238;2024-02-26T06:52:34;6.70;99.90
12967;DHT22;6548;49.996;8.238;2024-02-26T06:54:59;6.80;99.90
12967;DHT22;6548;49.996;8.238;2024-02-26T06:57:25;6.70;99.90
12967;DHT22;6548;49.996;8.238;2024-02-26T06:59:51;6.70;99.90
12967;DHT22;6548;49.996;8.238;2024-02-26T07:02:17;6.70;99.90
12967;DHT22;6548;49.996;8.238;2024-02-26T07:04:43;6.70;99.90
12967;DHT22;6548;49.996;8.238;2024-02-26T07:07:08;6.60;99.90
12967;DHT22;6548;49.996;8.238;2024-02-26T07:09:34;6.60;99.90
12967;DHT22;6548;49.996;8.238;2024-02-26T07:11:59;6.60;99.90
12967;DHT22;6548;49.996;8.238;2024-02-26T07:14:25;6.70;99.90
12967;DHT22;6548;49.996;8.238;2024-02-26T07:16:50;6.70;99.90
12967;DHT22;6548;49.996;8.238;2024-02-26T07:19:16;6.70;99.90
12967;DHT22;6548;49.996;8.238;2024-02-26T07:21:42;6.70;99.90
12967;DHT22;6548;49.996;8.238;2024-02-26T07:24:08;6.70;99.90
12967;DHT22;6548;49.996;8.238;2024-02-26T07:26:33;6.70;99.90
12967;DHT22;6548;49.996;8.238;2024-02-26T07:28:59;6.70;99.90
12967;DHT22;6548;49.996;8.238;2024-02-26T07:31:25;6.80;99.90
12967;DHT22;6548;49.996;8.238;2024-02-26T07:33:51;6.70;99.90
12967;DHT22;6548;49.996;8.238;2024-02-26T07:36:17;6.70;99.90
12967;DHT22;6548;49.996;8.238;2024-02-26T07:38:42;6.70;99.90
12967;DHT22;6548;49.996;8.238;2024-02-26T07:41:08;6.70;99.90
12967;DHT22;6548;49.996;8.238;2024-02-26T07:43:34;6.80;99.90
12967;DHT22;6548;49.996;8.238;2024-02-26T07:45:59;6.80;99.90
12967;DHT22;6548;49.996;8.238;2024-02-26T07:48:25;6.90;99.90
12967;DHT22;6548;49.996;8.238;2024-02-26T07:50:51;6.90;99.90
12967;DHT22;6548;49.996;8.238;2024-02-26T07:53:16;7.00;99.90
12967;DHT22;6548;49.996;8.238;2024-02-26T07:55:42;6.90;99.90
12967;DHT22;6548;49.996;8.238;2024-02-26T07:58:07;7.00;99.90
12967;DHT22;6548;49.996;8.238;2024-02-26T08:00:33;7.00;99.90
12967;DHT22;6548;49.996;8.238;2024-02-26T08:02:58;7.10;99.90
12967;DHT22;6548;49.996;8.238;2024-02-26T08:05:24;7.10;99.90
12967;DHT22;6548;49.996;8.238;2024-02-26T08:07:50;7.10;99.90
12967;DHT22;6548;49.996;8.238;2024-02-26T08:10:16;7.10;99.90
12967;DHT22;6548;49.996;8.238;2024-02-26T08:12:41;7.10;99.90
12967;DHT22;6548;49.996;8.238;2024-02-26T08:15:08;7.10;99.90
12967;DHT22;6548;49.996;8.238;2024-02-26T08:17:33;7.10;99.90
12967;DHT22;6548;49.996;8.238;2024-02-26T08:20:00;7.10;99.90
12967;DHT22;6548;49.996;8.238;2024-02-26T08:22:25;7.20;99.90
12967;DHT22;6548;49.996;8.238;2024-02-26T08:24:51;7.10;99.90
12967;DHT22;6548;49.996;8.238;2024-02-26T08:27:16;7.10;99.90
12967;DHT22;6548;49.996;8.238;2024-02-26T08:29:42;7.20;99.90
12967;DHT22;6548;49.996;8.238;2024-02-26T08:32:08;7.30;99.90
12967;DHT22;6548;49.996;8.238;2024-02-26T08:34:34;7.40;99.90
12967;DHT22;6548;49.996;8.238;2024-02-26T08:36:59;7.40;99.90
12967;DHT22;6548;49.996;8.238;2024-02-26T08:39:25;7.40;99.90
12967;DHT22;6548;49.996;8.238;2024-02-26T08:41:51;7.40;99.90
12967;DHT22;6548;49.996;8.238;2024-02-26T08:44:17;7.40;99.90
12967;DHT22;6548;49.996;8.238;2024-02-26T08:46:42;7.30;99.90
12967;DHT22;6548;49.996;8.238;2024-02-26T08:49:08;7.30;99.90
12967;DHT22;6548;49.996;8.238;2024-02-26T08:51:33;7.30;99.90
12967;DHT22;6548;49.996;8.238;2024-02-26T08:53:59;7.40;99.90
12967;DHT22;6548;49.996;8.238;2024-02-26T08:56:24;7.30;99.90
12967;DHT22;6548;49.996;8.238;2024-02-26T08:58:50;7.30;99.90
12967;DHT22;6548;49.996;8.238;2024-02-26T09:01:19;7.30;99.90
12967;DHT22;6548;49.996;8.238;2024-02-26T09:03:45;7.30;99.90
12967;DHT22;6548;49.996;8.238;2024-02-26T09:06:10;7.30;99.90
12967;DHT22;6548;49.996;8.238;2024-02-26T09:08:37;7.30;99.90
12967;DHT22;6548;49.996;8.238;2024-02-26T09:11:03;7.40;99.90
12967;DHT22;6548;49.996;8.238;2024-02-26T09:13:29;7.40;99.90
12967;DHT22;6548;49.996;8.238;2024-02-26T09:15:54;7.40;99.90
12967;DHT22;6548;49.996;8.238;2024-02-26T09:18:20;7.50;99.90
12967;DHT22;6548;49.996;8.238;2024-02-26T09:20:46;7.50;99.90
12967;DHT22;6548;49.996;8.238;2024-02-26T09:23:11;7.50;99.90
12967;DHT22;6548;49.996;8.238;2024-02-26T09:25:37;7.60;99.90
12967;DHT22;6548;49.996;8.238;2024-02-26T09:28:03;7.60;99.90
12967;DHT22;6548;49.996;8.238;2024-02-26T09:30:29;7.70;99.90
12967;DHT22;6548;49.996;8.238;2024-02-26T09:32:54;7.70;99.90
12967;DHT22;6548;49.996;8.238;2024-02-26T09:35:20;7.80;99.90
12967;DHT22;6548;49.996;8.238;2024-02-26T09:37:46;7.80;99.90
12967;DHT22;6548;49.996;8.238;2024-02-26T09:40:14;7.90;99.90
12967;DHT22;6548;49.996;8.238;2024-02-26T09:42:44;8.10;99.90
12967;DHT22;6548;49.996;8.238;2024-02-26T09:45:12;8.40;99.90
12967;DHT22;6548;49.996;8.238;2024-02-26T09:47:42;8.60;99.90
12967;DHT22;6548;49.996;8.238;2024-02-26T09:50:09;8.70;99.90
12967;DHT22;6548;49.996;8.238;2024-02-26T09:52:38;9.00;99.90
12967;DHT22;6548;49.996;8.238;2024-02-26T09:55:04;9.10;99.90
12967;DHT22;6548;49.996;8.238;2024-02-26T09:57:30;9.10;99.90
12967;DHT22;6548;49.996;8.238;2024-02-26T09:59:59;9.20;99.90
12967;DHT22;6548;49.996;8.238;2024-02-26T10:02:31;8.90;99.90
12967;DHT22;6548;49.996;8.238;2024-02-26T10:04:59;8.90;99.90
12967;DHT22;6548;49.996;8.238;2024-02-26T10:07:30;8.80;99.90
12967;DHT22;6548;49.996;8.238;2024-02-26T10:09:56;8.70;99.90
12967;DHT22;6548;49.996;8.238;2024-02-26T10:12:21;8.80;99.90
12967;DHT22;6548;49.996;8.238;2024-02-26T10:14:48;8.80;99.90
12967;DHT22;6548;49.996;8.238;2024-02-26T10:17:13;8.80;99.90
12967;DHT22;6548;49.996;8.238;2024-02-26T10:19:39;8.70;99.90
12967;DHT22;6548;49.996;8.238;2024-02-26T10:22:05;8.60;99.90
12967;DHT22;6548;49.996;8.238;2024-02-26T10:24:30;8.60;99.90
12967;DHT22;6548;49.996;8.238;2024-02-26T10:26:56;8.70;99.90
12967;DHT22;6548;49.996;8.238;2024-02-26T10:29:24;8.60;99.90
12967;DHT22;6548;49.996;8.238;2024-02-26T10:31:51;8.50;99.90
12967;DHT22;6548;49.996;8.238;2024-02-26T10:34:17;8.70;99.90
12967;DHT22;6548;49.996;8.238;2024-02-26T10:36:42;8.80;99.90
12967;DHT22;6548;49.996;8.238;2024-02-26T10:39:09;8.80;99.90
12967;DHT22;6548;49.996;8.238;2024-02-26T10:41:36;9.00;99.90
12967;DHT22;6548;49.996;8.238;2024-02-26T10:44:02;9.20;99.90
12967;DHT22;6548;49.996;8.238;2024-02-26T10:46:28;9.10;99.90
12967;DHT22;6548;49.996;8.238;2024-02-26T10:48:54;9.10;99.90
12967;DHT22;6548;49.996;8.238;2024-02-26T10:51:29;9.00;99.90
12967;DHT22;6548;49.996;8.238;2024-02-26T10:53:56;8.90;99.90
12967;DHT22;6548;49.996;8.238;2024-02-26T10:56:27;8.80;99.90
12967;DHT22;6548;49.996;8.238;2024-02-26T10:58:53;8.80;99.90
12967;DHT22;6548;49.996;8.238;2024-02-26T11:01:20;8.70;99.90
12967;DHT22;6548;49.996;8.238;2024-02-26T11:03:48;8.90;99.90
12967;DHT22;6548;49.996;8.238;2024-02-26T11:06:16;9.00;99.90
12967;DHT22;6548;49.996;8.238;2024-02-26T11:08:43;9.10;99.90
12967;DHT22;6548;49.996;8.238;2024-02-26T11:11:08;9.00;99.90
12967;DHT22;6548;49.996;8.238;2024-02-26T11:13:36;8.90;99.90
12967;DHT22;6548;49.996;8.238;2024-02-26T11:16:05;9.00;99.90
12967;DHT22;6548;49.996;8.238;2024-02-26T11:18:32;9.00;99.90
12967;DHT22;6548;49.996;8.238;2024-02-26T11:20:59;9.20;99.90
12967;DHT22;6548;49.996;8.238;2024-02-26T11:23:26;9.30;99.90
12967;DHT22;6548;49.996;8.238;2024-02-26T11:25:53;9.40;99.90
12967;DHT22;6548;49.996;8.238;2024-02-26T11:28:21;9.40;99.90
12967;DHT22;6548;49.996;8.238;2024-02-26T11:30:48;9.20;99.90
12967;DHT22;6548;49.996;8.238;2024-02-26T11:33:15;9.30;99.90
12967;DHT22;6548;49.996;8.238;2024-02-26T11:35:41;9.30;99.90
12967;DHT22;6548;49.996;8.238;2024-02-26T11:38:07;9.40;99.90
12967;DHT22;6548;49.996;8.238;2024-02-26T11:40:37;9.30;99.90
12967;DHT22;6548;49.996;8.238;2024-02-26T11:43:04;9.30;99.90
12967;DHT22;6548;49.996;8.238;2024-02-26T11:48:15;9.50;99.90
12967;DHT22;6548;49.996;8.238;2024-02-26T11:50:46;9.90;99.90
12967;DHT22;6548;49.996;8.238;2024-02-26T11:53:30;10.60;99.90
12967;DHT22;6548;49.996;8.238;2024-02-26T11:59:10;13.10;99.90
12967;DHT22;6548;49.996;8.238;2024-02-26T12:04:04;13.80;99.90
12967;DHT22;6548;49.996;8.238;2024-02-26T12:06:30;13.30;99.90
12967;DHT22;6548;49.996;8.238;2024-02-26T12:08:56;12.60;99.90
12967;DHT22;6548;49.996;8.238;2024-02-26T12:11:21;11.90;99.90
12967;DHT22;6548;49.996;8.238;2024-02-26T12:13:47;11.70;99.90
12967;DHT22;6548;49.996;8.238;2024-02-26T12:16:38;11.20;99.90
12967;DHT22;6548;49.996;8.238;2024-02-26T12:19:08;10.80;99.90
12967;DHT22;6548;49.996;8.238;2024-02-26T12:21:37;10.70;99.90
12967;DHT22;6548;49.996;8.238;2024-02-26T12:24:13;10.70;99.90
12967;DHT22;6548;49.996;8.238;2024-02-26T12:26:40;10.80;99.90
12967;DHT22;6548;49.996;8.238;2024-02-26T12:29:06;10.90;99.90
12967;DHT22;6548;49.996;8.238;2024-02-26T12:31:32;10.90;99.90
12967;DHT22;6548;49.996;8.238;2024-02-26T12:34:02;10.70;99.90
12967;DHT22;6548;49.996;8.238;2024-02-26T12:36:28;10.70;99.90
12967;DHT22;6548;49.996;8.238;2024-02-26T12:38:54;10.80;99.90
12967;DHT22;6548;49.996;8.238;2024-02-26T12:41:20;10.80;99.90
12967;DHT22;6548;49.996;8.238;2024-02-26T12:43:46;11.10;99.90
12967;DHT22;6548;49.996;8.238;2024-02-26T12:46:12;11.10;99.90
12967;DHT22;6548;49.996;8.238;2024-02-26T12:48:38;11.30;99.90
12967;DHT22;6548;49.996;8.238;2024-02-26T12:51:05;11.30;99.90
12967;DHT22;6548;49.996;8.238;2024-02-26T12:53:31;11.10;99.90
12967;DHT22;6548;49.996;8.238;2024-02-26T12:55:57;11.10;99.90
12967;DHT22;6548;49.996;8.238;2024-02-26T12:58:24;11.10;99.90
12967;DHT22;6548;49.996;8.238;2024-02-26T13:00:54;11.00;99.90
12967;DHT22;6548;49.996;8.238;2024-02-26T13:03:20;11.20;99.90
12967;DHT22;6548;49.996;8.238;2024-02-26T13:05:47;11.40;99.90
12967;DHT22;6548;49.996;8.238;2024-02-26T13:08:20;11.50;99.90
12967;DHT22;6548;49.996;8.238;2024-02-26T13:10:46;11.60;99.90
12967;DHT22;6548;49.996;8.238;2024-02-26T13:13:14;11.70;99.90
12967;DHT22;6548;49.996;8.238;2024-02-26T13:15:41;11.60;99.90
12967;DHT22;6548;49.996;8.238;2024-02-26T13:18:10;11.40;99.90
12967;DHT22;6548;49.996;8.238;2024-02-26T13:20:36;11.60;99.90
12967;DHT22;6548;49.996;8.238;2024-02-26T13:23:03;11.80;99.90
12967;DHT22;6548;49.996;8.238;2024-02-26T13:25:30;12.00;99.90
12967;DHT22;6548;49.996;8.238;2024-02-26T13:28:09;12.30;99.90
12967;DHT22;6548;49.996;8.238;2024-02-26T13:30:35;12.70;99.90
12967;DHT22;6548;49.996;8.238;2024-02-26T13:33:09;13.00;99.90
12967;DHT22;6548;49.996;8.238;2024-02-26T13:35:34;14.00;99.90
12967;DHT22;6548;49.996;8.238;2024-02-26T13:38:00;14.60;99.90
12967;DHT22;6548;49.996;8.238;2024-02-26T13:40:26;14.80;99.90
12967;DHT22;6548;49.996;8.238;2024-02-26T13:42:51;15.70;99.90
12967;DHT22;6548;49.996;8.238;2024-02-26T13:45:18;15.50;99.90
12967;DHT22;6548;49.996;8.238;2024-02-26T13:47:43;15.10;99.90
12967;DHT22;6548;49.996;8.238;2024-02-26T13:50:10;14.90;99.90
12967;DHT22;6548;49.996;8.238;2024-02-26T13:52:35;14.90;99.90
12967;DHT22;6548;49.996;8.238;2024-02-26T13:55:01;14.40;99.90
12967;DHT22;6548;49.996;8.238;2024-02-26T13:57:28;14.30;99.90
12967;DHT22;6548;49.996;8.238;2024-02-26T13:59:54;13.80;99.90
12967;DHT22;6548;49.996;8.238;2024-02-26T14:02:19;13.30;99.90
12967;DHT22;6548;49.996;8.238;2024-02-26T14:04:46;12.70;99.90
12967;DHT22;6548;49.996;8.238;2024-02-26T14:07:12;12.50;99.90
12967;DHT22;6548;49.996;8.238;2024-02-26T14:09:38;12.20;99.90
12967;DHT22;6548;49.996;8.238;2024-02-26T14:12:04;12.00;99.90
12967;DHT22;6548;49.996;8.238;2024-02-26T14:14:30;11.80;99.90
12967;DHT22;6548;49.996;8.238;2024-02-26T14:16:58;11.70;99.90
12967;DHT22;6548;49.996;8.238;2024-02-26T14:19:24;11.60;99.90
12967;DHT22;6548;49.996;8.238;2024-02-26T14:21:49;11.50;99.90
12967;DHT22;6548;49.996;8.238;2024-02-26T14:24:15;11.40;99.90
12967;DHT22;6548;49.996;8.238;2024-02-26T14:26:41;11.40;99.90
12967;DHT22;6548;49.996;8.238;2024-02-26T14:29:06;11.30;99.90
12967;DHT22;6548;49.996;8.238;2024-02-26T14:31:32;11.20;99.90
12967;DHT22;6548;49.996;8.238;2024-02-26T14:33:58;11.20;99.90
12967;DHT22;6548;49.996;8.238;2024-02-26T14:36:24;11.00;99.90
12967;DHT22;6548;49.996;8.238;2024-02-26T14:38:50;11.00;99.90
12967;DHT22;6548;49.996;8.238;2024-02-26T14:41:16;10.90;99.90
12967;DHT22;6548;49.996;8.238;2024-02-26T14:43:41;10.90;99.90
12967;DHT22;6548;49.996;8.238;2024-02-26T14:46:07;11.00;99.90
12967;DHT22;6548;49.996;8.238;2024-02-26T14:48:33;11.00;99.90
12967;DHT22;6548;49.996;8.238;2024-02-26T14:50:59;11.00;99.90
12967;DHT22;6548;49.996;8.238;2024-02-26T14:53:25;11.10;99.90
12967;DHT22;6548;49.996;8.238;2024-02-26T14:55:51;11.10;99.90
12967;DHT22;6548;49.996;8.238;2024-02-26T14:58:17;11.20;99.90
12967;DHT22;6548;49.996;8.238;2024-02-26T15:00:42;11.10;99.90
12967;DHT22;6548;49.996;8.238;2024-02-26T15:03:08;11.00;99.90
12967;DHT22;6548;49.996;8.238;2024-02-26T15:05:34;10.80;99.90
12967;DHT22;6548;49.996;8.238;2024-02-26T15:07:59;10.90;99.90
12967;DHT22;6548;49.996;8.238;2024-02-26T15:10:25;10.90;99.90
12967;DHT22;6548;49.996;8.238;2024-02-26T15:12:51;10.90;99.90
12967;DHT22;6548;49.996;8.238;2024-02-26T15:15:23;10.90;99.90
12967;DHT22;6548;49.996;8.238;2024-02-26T15:17:49;10.80;99.90
12967;DHT22;6548;49.996;8.238;2024-02-26T15:20:15;10.70;99.90
12967;DHT22;6548;49.996;8.238;2024-02-26T15:22:41;10.70;99.90
12967;DHT22;6548;49.996;8.238;2024-02-26T15:25:08;10.80;99.90
12967;DHT22;6548;49.996;8.238;2024-02-26T15:27:33;10.90;99.90
12967;DHT22;6548;49.996;8.238;2024-02-26T15:29:59;10.90;99.90
12967;DHT22;6548;49.996;8.238;2024-02-26T15:32:25;10.80;99.90
12967;DHT22;6548;49.996;8.238;2024-02-26T15:34:52;10.70;99.90
12967;DHT22;6548;49.996;8.238;2024-02-26T15:37:18;10.60;99.90
12967;DHT22;6548;49.996;8.238;2024-02-26T15:39:44;10.50;99.90
12967;DHT22;6548;49.996;8.238;2024-02-26T15:42:10;10.50;99.90
12967;DHT22;6548;49.996;8.238;2024-02-26T15:44:37;10.40;99.90
12967;DHT22;6548;49.996;8.238;2024-02-26T15:47:03;10.40;99.90
12967;DHT22;6548;49.996;8.238;2024-02-26T15:49:30;10.30;99.90
12967;DHT22;6548;49.996;8.238;2024-02-26T15:51:56;10.40;99.90
12967;DHT22;6548;49.996;8.238;2024-02-26T15:54:21;10.30;99.90
12967;DHT22;6548;49.996;8.238;2024-02-26T15:56:47;10.30;99.90
12967;DHT22;6548;49.996;8.238;2024-02-26T15:59:12;10.30;99.90